logo
Rechercher aéroport 
image banner adimage banner adimage banner ad
image banner ad

CA542 - Sherbrooke(Surete Du Qb)(Csh7)

Situé à , Canada

ICAO - , IATA -

Données fournies par Airmate  

Information générale

Coordonnées: N45°23'44" W71°56'43"
Élévation : feet MSL.
 
Voir autres Aéroports à Quebec

Données opérationnelles

Special qualification required
Heure actuelle UTC:
Heure actuelle locale:
Météo à : CYSC - Sherbrooke ( 20 km )
METAR: CYSC 131100Z AUTO 03008KT 8SM -RA OVC031 01/00 A2955 RMK PCPN 1.2MM PAST HR SLP017
TAF: TAF CYSC 051040Z 0511/0523 VRB03KT P6SM BKN025 TEMPO 0511/0516 5SM -SN OVC020 PROB30 0513/0516 1 1/2SM -SN FM051600 20010KT P6SM BKN040 TEMPO 0516/0523 4SM -SN OVC020 RMK FCST BASED ON AUTO OBS. NXT FCST BY 051800Z
Voir NOTAMs / SUP AIP / TFR affectant cet aéroport [VIEW]
Fréquences de communication: [VIEW]

Pistes:

Coordonnées de l'aéroport

Adresse: Canada

Vue satellite de CA542